sensor_id;sensor_type;location;lat;lon;timestamp;temperature;humidity
23744;DHT22;12052;53.478;10.182;2022-07-06T00:00:04;15.20;99.90
23744;DHT22;12052;53.478;10.182;2022-07-06T00:02:30;15.10;99.90
23744;DHT22;12052;53.478;10.182;2022-07-06T00:04:55;15.10;99.90
23744;DHT22;12052;53.478;10.182;2022-07-06T00:07:23;15.00;99.90
23744;DHT22;12052;53.478;10.182;2022-07-06T00:09:49;15.00;99.90
23744;DHT22;12052;53.478;10.182;2022-07-06T00:12:15;15.00;99.90
23744;DHT22;12052;53.478;10.182;2022-07-06T00:14:41;15.00;99.90
23744;DHT22;12052;53.478;10.182;2022-07-06T00:17:06;15.00;99.90
23744;DHT22;12052;53.478;10.182;2022-07-06T00:19:32;15.10;99.90
23744;DHT22;12052;53.478;10.182;2022-07-06T00:21:58;15.00;99.90
23744;DHT22;12052;53.478;10.182;2022-07-06T00:24:23;15.10;99.90
23744;DHT22;12052;53.478;10.182;2022-07-06T00:26:49;15.10;99.90
23744;DHT22;12052;53.478;10.182;2022-07-06T00:29:15;15.10;99.90
23744;DHT22;12052;53.478;10.182;2022-07-06T00:31:40;15.00;99.90
23744;DHT22;12052;53.478;10.182;2022-07-06T00:34:06;15.10;99.90
23744;DHT22;12052;53.478;10.182;2022-07-06T00:36:31;15.00;99.90
23744;DHT22;12052;53.478;10.182;2022-07-06T00:38:57;15.00;99.90
23744;DHT22;12052;53.478;10.182;2022-07-06T00:41:23;15.00;99.90
23744;DHT22;12052;53.478;10.182;2022-07-06T00:43:54;15.00;99.90
23744;DHT22;12052;53.478;10.182;2022-07-06T00:46:24;14.90;99.90
23744;DHT22;12052;53.478;10.182;2022-07-06T00:48:50;14.90;99.90
23744;DHT22;12052;53.478;10.182;2022-07-06T00:51:16;14.90;99.90
23744;DHT22;12052;53.478;10.182;2022-07-06T00:53:42;14.90;99.90
23744;DHT22;12052;53.478;10.182;2022-07-06T00:56:08;14.90;99.90
23744;DHT22;12052;53.478;10.182;2022-07-06T00:58:34;14.90;99.90
23744;DHT22;12052;53.478;10.182;2022-07-06T01:01:00;14.90;99.90
23744;DHT22;12052;53.478;10.182;2022-07-06T01:03:26;14.90;99.90
23744;DHT22;12052;53.478;10.182;2022-07-06T01:05:51;14.90;99.90
23744;DHT22;12052;53.478;10.182;2022-07-06T01:08:17;14.90;99.90
23744;DHT22;12052;53.478;10.182;2022-07-06T01:10:43;14.90;99.90
23744;DHT22;12052;53.478;10.182;2022-07-06T01:13:08;14.90;99.90
23744;DHT22;12052;53.478;10.182;2022-07-06T01:15:34;14.90;99.90
23744;DHT22;12052;53.478;10.182;2022-07-06T01:18:00;14.90;99.90
23744;DHT22;12052;53.478;10.182;2022-07-06T01:20:26;14.90;99.90
23744;DHT22;12052;53.478;10.182;2022-07-06T01:22:53;14.80;99.90
23744;DHT22;12052;53.478;10.182;2022-07-06T01:25:20;14.90;99.90
23744;DHT22;12052;53.478;10.182;2022-07-06T01:27:46;14.90;99.90
23744;DHT22;12052;53.478;10.182;2022-07-06T01:30:15;14.90;99.90
23744;DHT22;12052;53.478;10.182;2022-07-06T01:32:42;14.80;99.90
23744;DHT22;12052;53.478;10.182;2022-07-06T01:35:10;14.80;99.90
23744;DHT22;12052;53.478;10.182;2022-07-06T01:37:36;14.80;99.90
23744;DHT22;12052;53.478;10.182;2022-07-06T01:40:04;14.80;99.90
23744;DHT22;12052;53.478;10.182;2022-07-06T01:42:30;14.80;99.90
23744;DHT22;12052;53.478;10.182;2022-07-06T01:44:56;14.80;99.90
23744;DHT22;12052;53.478;10.182;2022-07-06T01:47:22;14.80;99.90
23744;DHT22;12052;53.478;10.182;2022-07-06T01:49:48;14.80;99.90
23744;DHT22;12052;53.478;10.182;2022-07-06T01:52:14;14.80;99.90
23744;DHT22;12052;53.478;10.182;2022-07-06T01:54:39;14.80;99.90
23744;DHT22;12052;53.478;10.182;2022-07-06T01:57:05;14.80;99.90
23744;DHT22;12052;53.478;10.182;2022-07-06T01:59:31;14.70;99.90
23744;DHT22;12052;53.478;10.182;2022-07-06T02:01:56;14.70;99.90
23744;DHT22;12052;53.478;10.182;2022-07-06T02:04:22;14.70;99.90
23744;DHT22;12052;53.478;10.182;2022-07-06T02:06:48;14.80;99.90
23744;DHT22;12052;53.478;10.182;2022-07-06T02:09:13;14.70;99.90
23744;DHT22;12052;53.478;10.182;2022-07-06T02:11:39;14.70;99.90
23744;DHT22;12052;53.478;10.182;2022-07-06T02:14:04;14.80;99.90
23744;DHT22;12052;53.478;10.182;2022-07-06T02:16:30;14.70;99.90
23744;DHT22;12052;53.478;10.182;2022-07-06T02:18:55;14.70;99.90
23744;DHT22;12052;53.478;10.182;2022-07-06T02:21:21;14.80;99.90
23744;DHT22;12052;53.478;10.182;2022-07-06T02:23:47;14.70;99.90
23744;DHT22;12052;53.478;10.182;2022-07-06T02:26:12;14.80;99.90
23744;DHT22;12052;53.478;10.182;2022-07-06T02:28:38;14.80;99.90
23744;DHT22;12052;53.478;10.182;2022-07-06T02:31:03;14.70;99.90
23744;DHT22;12052;53.478;10.182;2022-07-06T02:33:29;14.70;99.90
23744;DHT22;12052;53.478;10.182;2022-07-06T02:35:55;14.70;99.90
23744;DHT22;12052;53.478;10.182;2022-07-06T02:38:20;14.70;99.90
23744;DHT22;12052;53.478;10.182;2022-07-06T02:40:46;14.70;99.90
23744;DHT22;12052;53.478;10.182;2022-07-06T02:43:12;14.70;99.90
23744;DHT22;12052;53.478;10.182;2022-07-06T02:45:38;14.70;99.90
23744;DHT22;12052;53.478;10.182;2022-07-06T02:48:03;14.70;99.90
23744;DHT22;12052;53.478;10.182;2022-07-06T02:50:29;14.70;99.90
23744;DHT22;12052;53.478;10.182;2022-07-06T02:52:55;14.70;99.90
23744;DHT22;12052;53.478;10.182;2022-07-06T02:55:20;14.70;99.90
23744;DHT22;12052;53.478;10.182;2022-07-06T02:57:46;14.60;99.90
23744;DHT22;12052;53.478;10.182;2022-07-06T03:00:12;14.70;99.90
23744;DHT22;12052;53.478;10.182;2022-07-06T03:02:38;14.60;99.90
23744;DHT22;12052;53.478;10.182;2022-07-06T03:05:04;14.70;99.90
23744;DHT22;12052;53.478;10.182;2022-07-06T03:07:29;14.70;99.90
23744;DHT22;12052;53.478;10.182;2022-07-06T03:09:55;14.60;99.90
23744;DHT22;12052;53.478;10.182;2022-07-06T03:12:20;14.60;99.90
23744;DHT22;12052;53.478;10.182;2022-07-06T03:14:46;14.60;99.90
23744;DHT22;12052;53.478;10.182;2022-07-06T03:17:11;14.60;99.90
23744;DHT22;12052;53.478;10.182;2022-07-06T03:19:37;14.60;99.90
23744;DHT22;12052;53.478;10.182;2022-07-06T03:22:03;14.60;99.90
23744;DHT22;12052;53.478;10.182;2022-07-06T03:24:28;14.60;99.90
23744;DHT22;12052;53.478;10.182;2022-07-06T03:26:54;14.60;99.90
23744;DHT22;12052;53.478;10.182;2022-07-06T03:29:20;14.70;99.90
23744;DHT22;12052;53.478;10.182;2022-07-06T03:31:46;14.70;99.90
23744;DHT22;12052;53.478;10.182;2022-07-06T03:34:11;14.70;99.90
23744;DHT22;12052;53.478;10.182;2022-07-06T03:36:37;14.70;99.90
23744;DHT22;12052;53.478;10.182;2022-07-06T03:39:03;14.70;99.90
23744;DHT22;12052;53.478;10.182;2022-07-06T03:41:28;14.70;99.90
23744;DHT22;12052;53.478;10.182;2022-07-06T03:43:54;14.60;99.90
23744;DHT22;12052;53.478;10.182;2022-07-06T03:46:20;14.60;99.90
23744;DHT22;12052;53.478;10.182;2022-07-06T03:48:45;14.60;99.90
23744;DHT22;12052;53.478;10.182;2022-07-06T03:51:11;14.60;99.90
23744;DHT22;12052;53.478;10.182;2022-07-06T03:53:37;14.60;99.90
23744;DHT22;12052;53.478;10.182;2022-07-06T03:56:03;14.60;99.90
23744;DHT22;12052;53.478;10.182;2022-07-06T03:58:47;14.50;99.90
23744;DHT22;12052;53.478;10.182;2022-07-06T04:01:12;14.60;99.90
23744;DHT22;12052;53.478;10.182;2022-07-06T04:03:38;14.60;99.90
23744;DHT22;12052;53.478;10.182;2022-07-06T04:06:04;14.50;99.90
23744;DHT22;12052;53.478;10.182;2022-07-06T04:08:29;14.60;99.90
23744;DHT22;12052;53.478;10.182;2022-07-06T04:10:55;14.60;99.90
23744;DHT22;12052;53.478;10.182;2022-07-06T04:13:21;14.60;99.90
23744;DHT22;12052;53.478;10.182;2022-07-06T04:15:46;14.60;99.90
23744;DHT22;12052;53.478;10.182;2022-07-06T04:18:12;14.60;99.90
23744;DHT22;12052;53.478;10.182;2022-07-06T04:20:38;14.60;99.90
23744;DHT22;12052;53.478;10.182;2022-07-06T04:23:03;14.70;99.90
23744;DHT22;12052;53.478;10.182;2022-07-06T04:25:29;14.60;99.90
23744;DHT22;12052;53.478;10.182;2022-07-06T04:27:55;14.70;99.90
23744;DHT22;12052;53.478;10.182;2022-07-06T04:30:20;14.70;99.90
23744;DHT22;12052;53.478;10.182;2022-07-06T04:32:46;14.70;99.90
23744;DHT22;12052;53.478;10.182;2022-07-06T04:35:12;14.60;99.90
23744;DHT22;12052;53.478;10.182;2022-07-06T04:37:37;14.50;99.90
23744;DHT22;12052;53.478;10.182;2022-07-06T04:40:03;14.50;99.90
23744;DHT22;12052;53.478;10.182;2022-07-06T04:42:29;14.40;99.90
23744;DHT22;12052;53.478;10.182;2022-07-06T04:44:55;14.50;99.90
23744;DHT22;12052;53.478;10.182;2022-07-06T04:47:20;14.50;99.90
23744;DHT22;12052;53.478;10.182;2022-07-06T04:49:46;14.50;99.90
23744;DHT22;12052;53.478;10.182;2022-07-06T04:52:11;14.50;99.90
23744;DHT22;12052;53.478;10.182;2022-07-06T04:54:38;14.50;99.90
23744;DHT22;12052;53.478;10.182;2022-07-06T04:57:04;14.50;99.90
23744;DHT22;12052;53.478;10.182;2022-07-06T04:59:29;14.60;99.90
23744;DHT22;12052;53.478;10.182;2022-07-06T05:01:55;14.60;99.90
23744;DHT22;12052;53.478;10.182;2022-07-06T05:04:20;14.70;99.90
23744;DHT22;12052;53.478;10.182;2022-07-06T05:06:46;14.80;99.90
23744;DHT22;12052;53.478;10.182;2022-07-06T05:09:13;14.80;99.90
23744;DHT22;12052;53.478;10.182;2022-07-06T05:11:39;14.80;99.90
23744;DHT22;12052;53.478;10.182;2022-07-06T05:14:05;14.90;99.90
23744;DHT22;12052;53.478;10.182;2022-07-06T05:16:32;14.90;99.90
23744;DHT22;12052;53.478;10.182;2022-07-06T05:18:57;15.00;99.90
23744;DHT22;12052;53.478;10.182;2022-07-06T05:21:23;15.00;99.90
23744;DHT22;12052;53.478;10.182;2022-07-06T05:23:48;15.10;99.90
23744;DHT22;12052;53.478;10.182;2022-07-06T05:26:14;15.00;99.90
23744;DHT22;12052;53.478;10.182;2022-07-06T05:28:40;15.00;99.90
23744;DHT22;12052;53.478;10.182;2022-07-06T05:31:05;15.00;99.90
23744;DHT22;12052;53.478;10.182;2022-07-06T05:33:31;15.00;99.90
23744;DHT22;12052;53.478;10.182;2022-07-06T05:35:57;15.00;99.90
23744;DHT22;12052;53.478;10.182;2022-07-06T05:38:24;15.10;99.90
23744;DHT22;12052;53.478;10.182;2022-07-06T05:40:49;15.10;99.90
23744;DHT22;12052;53.478;10.182;2022-07-06T05:43:15;15.20;99.90
23744;DHT22;12052;53.478;10.182;2022-07-06T05:45:40;15.20;99.90
23744;DHT22;12052;53.478;10.182;2022-07-06T05:48:06;15.20;99.90
23744;DHT22;12052;53.478;10.182;2022-07-06T05:50:50;15.20;99.90
23744;DHT22;12052;53.478;10.182;2022-07-06T05:53:16;15.20;99.90
23744;DHT22;12052;53.478;10.182;2022-07-06T05:55:41;15.20;99.90
23744;DHT22;12052;53.478;10.182;2022-07-06T05:58:07;15.20;99.90
23744;DHT22;12052;53.478;10.182;2022-07-06T06:00:33;15.20;99.90
23744;DHT22;12052;53.478;10.182;2022-07-06T06:02:59;15.20;99.90
23744;DHT22;12052;53.478;10.182;2022-07-06T06:05:25;15.20;99.90
23744;DHT22;12052;53.478;10.182;2022-07-06T06:07:50;15.30;99.90
23744;DHT22;12052;53.478;10.182;2022-07-06T06:10:18;15.30;99.90
23744;DHT22;12052;53.478;10.182;2022-07-06T06:12:45;15.30;99.90
23744;DHT22;12052;53.478;10.182;2022-07-06T06:15:11;15.40;99.90
23744;DHT22;12052;53.478;10.182;2022-07-06T06:17:37;15.40;99.90
23744;DHT22;12052;53.478;10.182;2022-07-06T06:20:04;15.50;99.90
23744;DHT22;12052;53.478;10.182;2022-07-06T06:22:30;15.60;99.90
23744;DHT22;12052;53.478;10.182;2022-07-06T06:24:56;15.60;99.90
23744;DHT22;12052;53.478;10.182;2022-07-06T06:27:21;15.60;99.90
23744;DHT22;12052;53.478;10.182;2022-07-06T06:29:47;15.60;99.90
23744;DHT22;12052;53.478;10.182;2022-07-06T06:32:13;15.60;99.90
23744;DHT22;12052;53.478;10.182;2022-07-06T06:34:40;15.70;99.90
23744;DHT22;12052;53.478;10.182;2022-07-06T06:37:05;15.70;99.90
23744;DHT22;12052;53.478;10.182;2022-07-06T06:39:31;15.60;99.90
23744;DHT22;12052;53.478;10.182;2022-07-06T06:41:57;15.60;99.90
23744;DHT22;12052;53.478;10.182;2022-07-06T06:44:23;15.60;99.90
23744;DHT22;12052;53.478;10.182;2022-07-06T06:46:49;15.30;99.90
23744;DHT22;12052;53.478;10.182;2022-07-06T06:49:15;15.20;99.90
23744;DHT22;12052;53.478;10.182;2022-07-06T06:51:41;15.10;99.90
23744;DHT22;12052;53.478;10.182;2022-07-06T06:54:07;14.90;99.90
23744;DHT22;12052;53.478;10.182;2022-07-06T06:56:32;14.90;99.90
23744;DHT22;12052;53.478;10.182;2022-07-06T06:58:58;14.90;99.90
23744;DHT22;12052;53.478;10.182;2022-07-06T07:01:23;15.00;99.90
23744;DHT22;12052;53.478;10.182;2022-07-06T07:03:50;15.10;99.90
23744;DHT22;12052;53.478;10.182;2022-07-06T07:06:16;15.10;99.90
23744;DHT22;12052;53.478;10.182;2022-07-06T07:08:42;15.10;99.90
23744;DHT22;12052;53.478;10.182;2022-07-06T07:11:07;15.10;99.90
23744;DHT22;12052;53.478;10.182;2022-07-06T07:13:33;15.20;99.90
23744;DHT22;12052;53.478;10.182;2022-07-06T07:15:58;15.30;99.90
23744;DHT22;12052;53.478;10.182;2022-07-06T07:18:24;15.30;99.90
23744;DHT22;12052;53.478;10.182;2022-07-06T07:20:49;15.40;99.90
23744;DHT22;12052;53.478;10.182;2022-07-06T07:23:15;15.50;99.90
23744;DHT22;12052;53.478;10.182;2022-07-06T07:25:40;15.60;99.90
23744;DHT22;12052;53.478;10.182;2022-07-06T07:28:06;15.70;99.90
23744;DHT22;12052;53.478;10.182;2022-07-06T07:30:32;15.70;99.90
23744;DHT22;12052;53.478;10.182;2022-07-06T07:32:57;15.80;99.90
23744;DHT22;12052;53.478;10.182;2022-07-06T07:35:25;15.80;99.90
23744;DHT22;12052;53.478;10.182;2022-07-06T07:37:51;15.70;99.90
23744;DHT22;12052;53.478;10.182;2022-07-06T07:40:17;15.70;99.90
23744;DHT22;12052;53.478;10.182;2022-07-06T07:42:42;15.60;99.90
23744;DHT22;12052;53.478;10.182;2022-07-06T07:45:09;15.70;99.90
23744;DHT22;12052;53.478;10.182;2022-07-06T07:47:35;15.70;99.90
23744;DHT22;12052;53.478;10.182;2022-07-06T07:50:00;15.80;99.90
23744;DHT22;12052;53.478;10.182;2022-07-06T07:52:26;15.80;99.90
23744;DHT22;12052;53.478;10.182;2022-07-06T07:54:51;15.90;99.90
23744;DHT22;12052;53.478;10.182;2022-07-06T07:57:17;15.90;99.90
23744;DHT22;12052;53.478;10.182;2022-07-06T07:59:43;15.90;99.90
23744;DHT22;12052;53.478;10.182;2022-07-06T08:02:09;15.90;99.90
23744;DHT22;12052;53.478;10.182;2022-07-06T08:04:34;15.60;99.90
23744;DHT22;12052;53.478;10.182;2022-07-06T08:07:00;15.50;99.90
23744;DHT22;12052;53.478;10.182;2022-07-06T08:09:26;15.30;99.90
23744;DHT22;12052;53.478;10.182;2022-07-06T08:11:51;15.20;99.90
23744;DHT22;12052;53.478;10.182;2022-07-06T08:14:17;15.10;99.90
23744;DHT22;12052;53.478;10.182;2022-07-06T08:16:43;15.00;99.90
23744;DHT22;12052;53.478;10.182;2022-07-06T08:19:09;15.00;99.90
23744;DHT22;12052;53.478;10.182;2022-07-06T08:21:35;15.10;99.90
23744;DHT22;12052;53.478;10.182;2022-07-06T08:24:01;15.00;99.90
23744;DHT22;12052;53.478;10.182;2022-07-06T08:26:27;15.00;99.90
23744;DHT22;12052;53.478;10.182;2022-07-06T08:28:53;15.10;99.90
23744;DHT22;12052;53.478;10.182;2022-07-06T08:31:19;15.10;99.90
23744;DHT22;12052;53.478;10.182;2022-07-06T08:33:44;15.20;99.90
23744;DHT22;12052;53.478;10.182;2022-07-06T08:36:10;15.10;99.90
23744;DHT22;12052;53.478;10.182;2022-07-06T08:38:36;15.10;99.90
23744;DHT22;12052;53.478;10.182;2022-07-06T08:41:02;15.10;99.90
23744;DHT22;12052;53.478;10.182;2022-07-06T08:43:31;15.00;99.90
23744;DHT22;12052;53.478;10.182;2022-07-06T08:45:58;15.00;99.90
23744;DHT22;12052;53.478;10.182;2022-07-06T08:48:25;14.90;99.90
23744;DHT22;12052;53.478;10.182;2022-07-06T08:50:53;14.90;99.90
23744;DHT22;12052;53.478;10.182;2022-07-06T08:53:20;14.80;99.90
23744;DHT22;12052;53.478;10.182;2022-07-06T08:55:49;14.70;99.90
23744;DHT22;12052;53.478;10.182;2022-07-06T08:58:15;14.60;99.90
23744;DHT22;12052;53.478;10.182;2022-07-06T09:00:42;14.50;99.90
23744;DHT22;12052;53.478;10.182;2022-07-06T09:03:11;14.30;99.90
23744;DHT22;12052;53.478;10.182;2022-07-06T09:05:39;14.20;99.90
23744;DHT22;12052;53.478;10.182;2022-07-06T09:08:05;14.10;99.90
23744;DHT22;12052;53.478;10.182;2022-07-06T09:10:30;14.10;99.90
23744;DHT22;12052;53.478;10.182;2022-07-06T09:13:07;14.20;99.90
23744;DHT22;12052;53.478;10.182;2022-07-06T09:15:34;14.30;99.90
23744;DHT22;12052;53.478;10.182;2022-07-06T09:18:00;14.30;99.90
23744;DHT22;12052;53.478;10.182;2022-07-06T09:20:26;14.40;99.90
23744;DHT22;12052;53.478;10.182;2022-07-06T09:22:58;14.60;99.90
23744;DHT22;12052;53.478;10.182;2022-07-06T09:25:25;14.70;99.90
23744;DHT22;12052;53.478;10.182;2022-07-06T09:27:51;14.70;99.90
23744;DHT22;12052;53.478;10.182;2022-07-06T09:30:21;14.90;99.90
23744;DHT22;12052;53.478;10.182;2022-07-06T09:32:48;15.00;99.90
23744;DHT22;12052;53.478;10.182;2022-07-06T09:35:29;15.10;99.90
23744;DHT22;12052;53.478;10.182;2022-07-06T09:38:08;15.30;99.90
23744;DHT22;12052;53.478;10.182;2022-07-06T09:40:36;15.40;99.90
23744;DHT22;12052;53.478;10.182;2022-07-06T09:45:39;15.40;99.90
23744;DHT22;12052;53.478;10.182;2022-07-06T09:48:10;15.30;99.90
23744;DHT22;12052;53.478;10.182;2022-07-06T09:50:44;15.40;99.90
23744;DHT22;12052;53.478;10.182;2022-07-06T09:53:11;15.40;99.90
23744;DHT22;12052;53.478;10.182;2022-07-06T09:55:37;15.40;99.90
23744;DHT22;12052;53.478;10.182;2022-07-06T09:58:03;15.50;99.90
23744;DHT22;12052;53.478;10.182;2022-07-06T10:00:29;15.60;99.90
23744;DHT22;12052;53.478;10.182;2022-07-06T10:02:55;15.70;99.90
23744;DHT22;12052;53.478;10.182;2022-07-06T10:05:22;15.90;99.90
23744;DHT22;12052;53.478;10.182;2022-07-06T10:07:57;16.00;99.90
23744;DHT22;12052;53.478;10.182;2022-07-06T10:10:29;16.10;99.90
23744;DHT22;12052;53.478;10.182;2022-07-06T10:12:56;16.20;99.90
23744;DHT22;12052;53.478;10.182;2022-07-06T10:15:28;16.20;99.90
23744;DHT22;12052;53.478;10.182;2022-07-06T10:17:58;16.20;99.90
23744;DHT22;12052;53.478;10.182;2022-07-06T10:20:27;16.20;99.90
23744;DHT22;12052;53.478;10.182;2022-07-06T10:22:54;16.20;99.90
23744;DHT22;12052;53.478;10.182;2022-07-06T10:25:23;16.40;99.90
23744;DHT22;12052;53.478;10.182;2022-07-06T10:27:49;16.50;99.90
23744;DHT22;12052;53.478;10.182;2022-07-06T10:30:15;16.70;99.90
23744;DHT22;12052;53.478;10.182;2022-07-06T10:32:43;16.80;99.90
23744;DHT22;12052;53.478;10.182;2022-07-06T10:35:09;16.90;99.90
23744;DHT22;12052;53.478;10.182;2022-07-06T10:37:35;17.10;99.90
23744;DHT22;12052;53.478;10.182;2022-07-06T10:40:01;17.20;99.90
23744;DHT22;12052;53.478;10.182;2022-07-06T10:42:49;17.30;99.90
23744;DHT22;12052;53.478;10.182;2022-07-06T10:50:41;17.30;99.90
23744;DHT22;12052;53.478;10.182;2022-07-06T10:55:45;17.00;99.90
23744;DHT22;12052;53.478;10.182;2022-07-06T10:58:13;16.80;99.90
23744;DHT22;12052;53.478;10.182;2022-07-06T11:00:54;16.60;99.90
23744;DHT22;12052;53.478;10.182;2022-07-06T11:06:12;16.10;99.90
23744;DHT22;12052;53.478;10.182;2022-07-06T11:16:17;15.70;99.90
23744;DHT22;12052;53.478;10.182;2022-07-06T11:21:44;15.40;99.90
23744;DHT22;12052;53.478;10.182;2022-07-06T11:24:16;15.30;99.90
23744;DHT22;12052;53.478;10.182;2022-07-06T11:26:44;15.20;99.90
23744;DHT22;12052;53.478;10.182;2022-07-06T11:29:10;15.10;99.90
23744;DHT22;12052;53.478;10.182;2022-07-06T11:31:41;15.00;99.90
23744;DHT22;12052;53.478;10.182;2022-07-06T11:34:09;15.10;99.90
23744;DHT22;12052;53.478;10.182;2022-07-06T11:36:35;15.10;99.90
23744;DHT22;12052;53.478;10.182;2022-07-06T11:39:01;15.20;99.90
23744;DHT22;12052;53.478;10.182;2022-07-06T11:41:27;15.30;99.90
23744;DHT22;12052;53.478;10.182;2022-07-06T11:43:53;15.30;99.90
23744;DHT22;12052;53.478;10.182;2022-07-06T11:46:25;15.40;99.90
23744;DHT22;12052;53.478;10.182;2022-07-06T11:49:11;15.60;99.90
23744;DHT22;12052;53.478;10.182;2022-07-06T11:51:39;15.70;99.90
23744;DHT22;12052;53.478;10.182;2022-07-06T11:54:13;15.70;99.90
23744;DHT22;12052;53.478;10.182;2022-07-06T11:56:52;15.90;99.90
23744;DHT22;12052;53.478;10.182;2022-07-06T11:59:24;16.10;99.90
23744;DHT22;12052;53.478;10.182;2022-07-06T12:04:52;16.40;99.90
23744;DHT22;12052;53.478;10.182;2022-07-06T12:07:17;16.60;99.90
23744;DHT22;12052;53.478;10.182;2022-07-06T12:09:45;16.80;99.90
23744;DHT22;12052;53.478;10.182;2022-07-06T12:12:11;17.00;99.90
23744;DHT22;12052;53.478;10.182;2022-07-06T12:14:39;17.20;99.90
23744;DHT22;12052;53.478;10.182;2022-07-06T12:17:07;17.30;99.90
23744;DHT22;12052;53.478;10.182;2022-07-06T12:19:34;17.50;99.90
23744;DHT22;12052;53.478;10.182;2022-07-06T12:22:01;17.70;99.90
23744;DHT22;12052;53.478;10.182;2022-07-06T12:24:28;17.70;99.90
23744;DHT22;12052;53.478;10.182;2022-07-06T12:26:56;18.00;99.90
23744;DHT22;12052;53.478;10.182;2022-07-06T12:29:22;18.10;99.90
23744;DHT22;12052;53.478;10.182;2022-07-06T12:31:56;18.30;99.90
23744;DHT22;12052;53.478;10.182;2022-07-06T12:34:26;18.50;99.90
23744;DHT22;12052;53.478;10.182;2022-07-06T12:36:55;18.50;99.90
23744;DHT22;12052;53.478;10.182;2022-07-06T12:39:23;18.50;99.90
23744;DHT22;12052;53.478;10.182;2022-07-06T12:42:08;18.60;99.90
23744;DHT22;12052;53.478;10.182;2022-07-06T12:44:50;18.70;99.90
23744;DHT22;12052;53.478;10.182;2022-07-06T12:47:19;18.80;99.90
23744;DHT22;12052;53.478;10.182;2022-07-06T12:49:46;19.10;99.90
23744;DHT22;12052;53.478;10.182;2022-07-06T12:52:14;19.30;99.90
23744;DHT22;12052;53.478;10.182;2022-07-06T12:54:45;19.40;99.90
23744;DHT22;12052;53.478;10.182;2022-07-06T13:04:59;19.60;99.90
23744;DHT22;12052;53.478;10.182;2022-07-06T13:07:26;19.70;99.90
23744;DHT22;12052;53.478;10.182;2022-07-06T13:09:54;19.50;99.90
23744;DHT22;12052;53.478;10.182;2022-07-06T13:12:21;19.50;99.90
23744;DHT22;12052;53.478;10.182;2022-07-06T13:14:47;19.50;99.90
23744;DHT22;12052;53.478;10.182;2022-07-06T13:17:12;19.40;99.90
23744;DHT22;12052;53.478;10.182;2022-07-06T13:19:38;19.40;99.90
23744;DHT22;12052;53.478;10.182;2022-07-06T13:22:04;19.40;99.90
23744;DHT22;12052;53.478;10.182;2022-07-06T13:24:29;19.30;99.90
23744;DHT22;12052;53.478;10.182;2022-07-06T13:26:56;19.30;99.90
23744;DHT22;12052;53.478;10.182;2022-07-06T13:29:21;19.30;99.90
23744;DHT22;12052;53.478;10.182;2022-07-06T13:31:47;19.40;99.90
23744;DHT22;12052;53.478;10.182;2022-07-06T13:34:13;19.40;99.90
23744;DHT22;12052;53.478;10.182;2022-07-06T13:36:41;19.40;99.90
23744;DHT22;12052;53.478;10.182;2022-07-06T13:39:07;19.30;99.90
23744;DHT22;12052;53.478;10.182;2022-07-06T13:41:33;19.20;99.90
23744;DHT22;12052;53.478;10.182;2022-07-06T13:43:59;19.10;99.90
23744;DHT22;12052;53.478;10.182;2022-07-06T13:46:27;19.00;99.90
23744;DHT22;12052;53.478;10.182;2022-07-06T13:48:53;18.90;99.90
23744;DHT22;12052;53.478;10.182;2022-07-06T13:51:19;18.90;99.90
23744;DHT22;12052;53.478;10.182;2022-07-06T13:53:45;19.00;99.90
23744;DHT22;12052;53.478;10.182;2022-07-06T13:56:11;19.20;99.90
23744;DHT22;12052;53.478;10.182;2022-07-06T13:58:37;19.40;99.90
23744;DHT22;12052;53.478;10.182;2022-07-06T14:01:03;19.60;99.90
23744;DHT22;12052;53.478;10.182;2022-07-06T14:03:29;19.70;99.90
23744;DHT22;12052;53.478;10.182;2022-07-06T14:05:59;20.00;99.90
23744;DHT22;12052;53.478;10.182;2022-07-06T14:08:26;20.00;99.90
23744;DHT22;12052;53.478;10.182;2022-07-06T14:10:52;19.90;99.90
23744;DHT22;12052;53.478;10.182;2022-07-06T14:13:19;19.80;99.90
23744;DHT22;12052;53.478;10.182;2022-07-06T14:15:44;19.80;99.90
23744;DHT22;12052;53.478;10.182;2022-07-06T14:18:10;19.90;99.90
23744;DHT22;12052;53.478;10.182;2022-07-06T14:20:36;20.20;99.90
23744;DHT22;12052;53.478;10.182;2022-07-06T14:23:02;20.40;99.90
23744;DHT22;12052;53.478;10.182;2022-07-06T14:25:27;20.50;99.90
23744;DHT22;12052;53.478;10.182;2022-07-06T14:27:53;20.60;99.90
23744;DHT22;12052;53.478;10.182;2022-07-06T14:30:19;20.50;99.90
23744;DHT22;12052;53.478;10.182;2022-07-06T14:32:44;20.40;99.90
23744;DHT22;12052;53.478;10.182;2022-07-06T14:35:11;20.20;99.90
23744;DHT22;12052;53.478;10.182;2022-07-06T14:37:36;20.00;99.90
23744;DHT22;12052;53.478;10.182;2022-07-06T14:40:03;19.90;99.90
23744;DHT22;12052;53.478;10.182;2022-07-06T14:42:28;19.80;99.90
23744;DHT22;12052;53.478;10.182;2022-07-06T14:44:54;19.80;99.90
23744;DHT22;12052;53.478;10.182;2022-07-06T14:47:20;19.80;99.90
23744;DHT22;12052;53.478;10.182;2022-07-06T14:49:46;19.50;99.90
23744;DHT22;12052;53.478;10.182;2022-07-06T14:52:11;19.40;99.90
23744;DHT22;12052;53.478;10.182;2022-07-06T14:54:37;19.50;99.90
23744;DHT22;12052;53.478;10.182;2022-07-06T14:57:03;19.50;99.90
23744;DHT22;12052;53.478;10.182;2022-07-06T14:59:32;19.40;99.90
23744;DHT22;12052;53.478;10.182;2022-07-06T15:01:58;19.40;99.90
23744;DHT22;12052;53.478;10.182;2022-07-06T15:04:23;19.30;99.90
23744;DHT22;12052;53.478;10.182;2022-07-06T15:06:49;19.30;99.90
23744;DHT22;12052;53.478;10.182;2022-07-06T15:09:16;19.30;99.90
23744;DHT22;12052;53.478;10.182;2022-07-06T15:11:41;19.40;99.90
23744;DHT22;12052;53.478;10.182;2022-07-06T15:14:07;19.50;99.90
23744;DHT22;12052;53.478;10.182;2022-07-06T15:16:33;19.60;99.90
23744;DHT22;12052;53.478;10.182;2022-07-06T15:18:59;19.80;99.90
23744;DHT22;12052;53.478;10.182;2022-07-06T15:21:24;19.80;99.90
23744;DHT22;12052;53.478;10.182;2022-07-06T15:23:54;19.90;99.90
23744;DHT22;12052;53.478;10.182;2022-07-06T15:26:21;19.80;99.90
23744;DHT22;12052;53.478;10.182;2022-07-06T15:28:46;19.60;99.90
23744;DHT22;12052;53.478;10.182;2022-07-06T15:31:12;19.60;99.90
23744;DHT22;12052;53.478;10.182;2022-07-06T15:33:37;19.60;99.90
23744;DHT22;12052;53.478;10.182;2022-07-06T15:36:03;19.60;99.90
23744;DHT22;12052;53.478;10.182;2022-07-06T15:38:29;19.70;99.90
23744;DHT22;12052;53.478;10.182;2022-07-06T15:40:54;19.70;99.90
23744;DHT22;12052;53.478;10.182;2022-07-06T15:43:23;19.60;99.90
23744;DHT22;12052;53.478;10.182;2022-07-06T15:45:55;19.50;99.90